createdAt,value
2023-02-11T00:00:50.879Z,15.90
2023-02-11T00:06:00.637Z,25.58
2023-02-11T00:11:05.464Z,19.45
2023-02-11T00:16:16.530Z,17.65
2023-02-11T00:21:23.304Z,18.17
2023-02-11T00:26:31.126Z,27.70
2023-02-11T00:31:36.835Z,33.03
2023-02-11T00:36:43.034Z,33.65
2023-02-11T00:41:47.323Z,18.40
2023-02-11T00:46:53.553Z,13.45
2023-02-11T00:52:00.571Z,23.42
2023-02-11T00:57:04.703Z,30.83
2023-02-11T01:02:10.200Z,16.17
2023-02-11T01:07:14.316Z,24.02
2023-02-11T01:12:18.340Z,13.82
2023-02-11T01:17:24.355Z,15.68
2023-02-11T01:22:28.631Z,18.50
2023-02-11T01:27:32.721Z,21.40
2023-02-11T01:32:38.215Z,29.83
2023-02-11T01:37:42.981Z,33.33
2023-02-11T01:42:48.874Z,25.63
2023-02-11T01:47:58.774Z,19.10
2023-02-11T01:53:24.255Z,20.75
2023-02-11T01:58:30.320Z,15.20
2023-02-11T02:03:39.087Z,29.42
2023-02-11T02:08:48.344Z,11.30
2023-02-11T02:13:52.431Z,15.18
2023-02-11T02:19:16.227Z,20.23
2023-02-11T02:24:56.727Z,24.30
2023-02-11T02:30:25.582Z,7.60
2023-02-11T02:35:41.768Z,11.75
2023-02-11T02:40:52.069Z,7.22
2023-02-11T02:45:56.391Z,25.75
2023-02-11T02:51:14.189Z,32.28
2023-02-11T02:56:27.519Z,19.95
2023-02-11T03:01:41.119Z,18.33
2023-02-11T03:06:53.988Z,26.95
2023-02-11T03:11:58.195Z,22.15
2023-02-11T03:17:06.231Z,12.90
2023-02-11T03:22:18.426Z,12.50
2023-02-11T03:27:27.025Z,18.80
2023-02-11T03:32:37.589Z,13.48
2023-02-11T03:37:50.348Z,16.35
2023-02-11T03:43:00.922Z,26.27
2023-02-11T03:48:13.742Z,13.07
2023-02-11T03:53:21.950Z,15.77
2023-02-11T03:58:26.287Z,14.82
2023-02-11T04:03:30.575Z,15.52
2023-02-11T04:08:35.945Z,17.20
2023-02-11T04:13:40.180Z,15.13
2023-02-11T04:18:44.301Z,8.95
2023-02-11T04:23:50.089Z,11.88
2023-02-11T04:28:54.068Z,16.75
2023-02-11T04:33:58.242Z,16.27
2023-02-11T04:39:04.498Z,11.07
2023-02-11T04:44:09.086Z,10.98
2023-02-11T04:49:14.745Z,10.75
2023-02-11T04:54:20.092Z,9.63
2023-02-11T04:59:24.177Z,26.58
2023-02-11T05:04:30.817Z,21.35
2023-02-11T05:09:36.468Z,19.67
2023-02-11T05:14:41.675Z,25.52
2023-02-11T05:19:45.746Z,46.97
2023-02-11T05:24:51.106Z,6.00
2023-02-11T05:29:55.125Z,12.75
2023-02-11T05:34:59.214Z,19.92
2023-02-11T05:40:06.579Z,31.45
2023-02-11T05:45:11.096Z,17.85
2023-02-11T05:50:15.317Z,24.40
2023-02-11T05:55:20.840Z,32.42
2023-02-11T06:00:25.321Z,31.52
2023-02-11T06:05:29.380Z,19.30
2023-02-11T06:10:34.898Z,33.88
2023-02-11T06:15:41.312Z,17.05
2023-02-11T06:20:45.921Z,29.73
2023-02-11T06:25:51.683Z,33.47
2023-02-11T06:30:55.937Z,12.93
2023-02-11T06:35:59.970Z,14.88
2023-02-11T06:41:07.318Z,17.23
2023-02-11T06:46:11.483Z,17.50
2023-02-11T06:51:17.243Z,44.25
2023-02-11T06:56:24.847Z,35.25
2023-02-11T07:01:29.807Z,32.90
2023-02-11T07:06:34.010Z,52.08
2023-02-11T07:11:39.654Z,88.90
2023-02-11T07:16:44.936Z,82.72
2023-02-11T07:21:49.855Z,41.45
2023-02-11T07:26:56.043Z,23.85
2023-02-11T07:32:00.687Z,17.08
2023-02-11T07:37:04.767Z,22.52
2023-02-11T07:42:10.164Z,18.70
2023-02-11T07:47:14.142Z,22.75
2023-02-11T07:52:18.159Z,26.55
2023-02-11T07:57:23.464Z,28.98
2023-02-11T08:02:27.747Z,27.38
2023-02-11T08:07:32.564Z,24.40
2023-02-11T08:12:37.977Z,19.50
2023-02-11T08:17:43.103Z,25.83
2023-02-11T08:22:49.085Z,19.38
2023-02-11T08:27:57.167Z,17.50
2023-02-11T08:33:01.561Z,18.38
2023-02-11T08:38:05.572Z,24.83
2023-02-11T08:43:11.483Z,46.30
2023-02-11T08:48:16.482Z,26.27
2023-02-11T08:53:20.622Z,27.60
2023-02-11T08:58:26.334Z,38.70
2023-02-11T09:03:30.874Z,99.20
2023-02-11T09:08:36.751Z,41.55
2023-02-11T09:13:44.606Z,54.95
2023-02-11T09:18:49.385Z,35.22
2023-02-11T09:23:54.267Z,26.88
2023-02-11T09:29:00.293Z,27.38
2023-02-11T09:34:06.922Z,44.17
2023-02-11T09:39:14.161Z,23.65
2023-02-11T09:44:23.968Z,22.98
2023-02-11T09:49:36.215Z,43.92
2023-02-11T09:54:51.400Z,36.92
2023-02-11T09:59:57.384Z,25.60
2023-02-11T10:05:23.893Z,37.55
2023-02-11T10:10:42.203Z,33.72
2023-02-11T10:15:53.514Z,56.25
2023-02-11T10:21:09.420Z,21.98
2023-02-11T10:26:16.056Z,53.80
2023-02-11T10:31:26.125Z,28.10
2023-02-11T10:36:37.348Z,76.78
2023-02-11T10:41:45.866Z,30.13
2023-02-11T10:46:53.486Z,24.00
2023-02-11T10:52:15.187Z,31.25
2023-02-11T10:57:21.234Z,17.55
2023-02-11T11:02:32.278Z,19.08
2023-02-11T11:07:37.725Z,21.02
2023-02-11T11:12:49.796Z,16.27
2023-02-11T11:18:21.516Z,14.00
2023-02-11T11:23:27.512Z,13.02
2023-02-11T11:28:39.004Z,16.23
2023-02-11T11:33:45.760Z,21.55
2023-02-11T11:38:53.707Z,13.60
2023-02-11T11:44:04.780Z,17.10
2023-02-11T11:49:22.620Z,15.88
2023-02-11T11:54:29.387Z,12.93
2023-02-11T11:59:33.545Z,11.35
2023-02-11T12:05:00.129Z,15.40
2023-02-11T12:10:36.134Z,17.08
2023-02-11T12:15:51.072Z,21.42
2023-02-11T12:21:13.533Z,22.38
2023-02-11T12:26:21.688Z,13.07
2023-02-11T12:31:35.577Z,28.98
2023-02-11T12:36:58.059Z,41.45
2023-02-11T12:42:48.349Z,19.92
2023-02-11T12:48:06.662Z,18.17
2023-02-11T12:53:34.841Z,33.13
2023-02-11T12:58:45.373Z,21.00
2023-02-11T13:03:54.740Z,21.00
2023-02-11T13:09:02.976Z,14.85
2023-02-11T13:14:14.127Z,23.70
2023-02-11T13:19:27.570Z,20.52
2023-02-11T13:24:44.347Z,21.92
2023-02-11T13:30:23.659Z,19.77
2023-02-11T13:35:30.246Z,24.05
2023-02-11T13:40:37.906Z,24.05
2023-02-11T13:45:47.216Z,32.23
2023-02-11T13:50:54.427Z,30.98
2023-02-11T13:56:11.400Z,22.85
2023-02-11T14:01:40.825Z,14.75
2023-02-11T14:07:45.277Z,23.03
2023-02-11T14:13:07.008Z,33.97
2023-02-11T14:18:39.184Z,36.88
2023-02-11T14:23:43.809Z,34.63
2023-02-11T14:28:52.345Z,30.00
2023-02-11T14:34:13.347Z,26.42
2023-02-11T14:39:27.062Z,36.58
2023-02-11T14:44:35.648Z,26.27
2023-02-11T14:49:41.479Z,29.83
2023-02-11T14:54:49.265Z,44.90
2023-02-11T14:59:59.179Z,38.78
2023-02-11T15:05:19.128Z,44.72
2023-02-11T15:10:31.504Z,48.75
2023-02-11T15:15:41.668Z,35.47
2023-02-11T15:20:46.827Z,38.40
2023-02-11T15:25:56.631Z,44.65
2023-02-11T15:31:05.565Z,51.60
2023-02-11T15:36:12.755Z,50.00
2023-02-11T15:41:36.967Z,57.55
2023-02-11T15:46:47.523Z,102.55
2023-02-11T15:51:52.123Z,37.33
2023-02-11T15:57:03.621Z,38.47
2023-02-11T16:02:18.853Z,43.92
2023-02-11T16:07:42.092Z,80.97
2023-02-11T16:12:53.507Z,57.85
2023-02-11T16:17:59.341Z,57.25
2023-02-11T16:23:05.124Z,85.82
2023-02-11T16:28:17.450Z,95.93
2023-02-11T16:33:23.727Z,63.15
2023-02-11T16:38:27.772Z,37.90
2023-02-11T16:43:31.793Z,66.32
2023-02-11T16:48:39.020Z,69.93
2023-02-11T16:53:43.222Z,93.28
2023-02-11T16:58:47.360Z,67.00
2023-02-11T17:03:54.149Z,80.63
2023-02-11T17:08:59.653Z,73.00
2023-02-11T17:14:03.859Z,87.57
2023-02-11T17:19:13.319Z,52.72
2023-02-11T17:24:18.226Z,74.00
2023-02-11T17:29:24.087Z,69.90
2023-02-11T17:34:29.642Z,73.47
2023-02-11T17:39:33.690Z,83.95
2023-02-11T17:44:37.689Z,97.32
2023-02-11T17:49:43.294Z,63.20
2023-02-11T17:54:47.363Z,26.92
2023-02-11T17:59:51.814Z,50.13
2023-02-11T18:04:58.947Z,47.72
2023-02-11T18:10:03.255Z,50.75
2023-02-11T18:15:08.897Z,55.55
2023-02-11T18:20:15.018Z,49.50
2023-02-11T18:25:20.154Z,54.60
2023-02-11T18:30:26.086Z,47.75
2023-02-11T18:35:31.680Z,50.45
2023-02-11T18:40:41.167Z,55.05
2023-02-11T18:45:45.741Z,47.00
2023-02-11T18:50:51.224Z,52.30
2023-02-11T18:55:55.721Z,67.72
2023-02-11T19:01:00.219Z,109.35
2023-02-11T19:06:06.251Z,119.30
2023-02-11T19:11:16.221Z,87.40
2023-02-11T19:16:21.560Z,62.35
2023-02-11T19:21:27.028Z,45.03
2023-02-11T19:26:31.365Z,108.68
2023-02-11T19:31:36.226Z,87.38
2023-02-11T19:36:42.039Z,78.55
2023-02-11T19:41:46.104Z,85.32
2023-02-11T19:46:53.478Z,74.60
2023-02-11T19:52:01.932Z,63.80
2023-02-11T19:57:06.031Z,61.20
2023-02-11T20:02:11.630Z,47.88
2023-02-11T20:07:17.341Z,34.97
2023-02-11T20:12:22.804Z,31.48
2023-02-11T20:17:26.851Z,29.15
2023-02-11T20:22:32.327Z,39.45
2023-02-11T20:27:36.424Z,42.95
2023-02-11T20:32:40.962Z,39.67
2023-02-11T20:37:46.335Z,41.22
2023-02-11T20:42:50.761Z,38.35
2023-02-11T20:47:55.545Z,51.95
2023-02-11T20:53:01.136Z,37.85
2023-02-11T20:58:05.935Z,53.03
2023-02-11T21:03:10.084Z,63.95
2023-02-11T21:08:15.914Z,85.22
2023-02-11T21:13:19.864Z,97.53
2023-02-11T21:18:25.361Z,86.45
2023-02-11T21:23:30.937Z,46.47
2023-02-11T21:28:35.485Z,44.20
2023-02-11T21:33:39.615Z,50.67
2023-02-11T21:38:45.029Z,30.25
2023-02-11T21:43:49.582Z,44.15
2023-02-11T21:48:53.578Z,44.78
2023-02-11T21:54:03.823Z,33.42
2023-02-11T21:59:07.851Z,37.78
2023-02-11T22:04:12.099Z,38.95
2023-02-11T22:09:17.645Z,39.42
2023-02-11T22:14:22.140Z,27.13
2023-02-11T22:19:26.147Z,31.35
2023-02-11T22:24:31.711Z,33.72
2023-02-11T22:29:35.997Z,46.35
2023-02-11T22:34:40.128Z,56.00
2023-02-11T22:39:45.570Z,31.67
2023-02-11T22:44:49.603Z,30.55
2023-02-11T22:49:53.646Z,43.35
2023-02-11T22:55:00.532Z,44.05
2023-02-11T23:00:09.855Z,39.28
2023-02-11T23:05:14.277Z,30.45
2023-02-11T23:10:20.186Z,24.60
2023-02-11T23:15:24.323Z,49.67
2023-02-11T23:20:28.474Z,33.50
2023-02-11T23:25:35.026Z,40.10
2023-02-11T23:30:39.668Z,34.10
2023-02-11T23:35:43.761Z,33.40
2023-02-11T23:40:51.699Z,42.40
2023-02-11T23:45:56.036Z,31.67
2023-02-11T23:51:00.162Z,33.20
2023-02-11T23:56:11.757Z,46.47
